sensor_id;sensor_type;location;lat;lon;timestamp;P1;durP1;ratioP1;P2;durP2;ratioP2
21661;SDS011;10992;48.170;8.596;2023-02-01T00:00:31;2.75;;;2.30;;
21661;SDS011;10992;48.170;8.596;2023-02-01T00:03:00;2.95;;;2.45;;
21661;SDS011;10992;48.170;8.596;2023-02-01T00:05:27;3.15;;;2.60;;
21661;SDS011;10992;48.170;8.596;2023-02-01T00:07:55;2.75;;;2.30;;
21661;SDS011;10992;48.170;8.596;2023-02-01T00:10:22;2.80;;;2.50;;
21661;SDS011;10992;48.170;8.596;2023-02-01T00:12:49;4.00;;;2.80;;
21661;SDS011;10992;48.170;8.596;2023-02-01T00:15:16;4.07;;;3.03;;
21661;SDS011;10992;48.170;8.596;2023-02-01T00:17:43;3.60;;;2.92;;
21661;SDS011;10992;48.170;8.596;2023-02-01T00:20:10;3.53;;;2.95;;
21661;SDS011;10992;48.170;8.596;2023-02-01T00:22:37;3.72;;;2.83;;
21661;SDS011;10992;48.170;8.596;2023-02-01T00:25:04;3.55;;;2.78;;
21661;SDS011;10992;48.170;8.596;2023-02-01T00:27:31;3.72;;;2.78;;
21661;SDS011;10992;48.170;8.596;2023-02-01T00:29:58;3.63;;;2.83;;
21661;SDS011;10992;48.170;8.596;2023-02-01T00:32:25;4.05;;;3.05;;
21661;SDS011;10992;48.170;8.596;2023-02-01T00:34:52;2.90;;;2.60;;
21661;SDS011;10992;48.170;8.596;2023-02-01T00:37:19;3.33;;;2.90;;
21661;SDS011;10992;48.170;8.596;2023-02-01T00:39:46;3.17;;;2.88;;
21661;SDS011;10992;48.170;8.596;2023-02-01T00:42:13;2.97;;;2.67;;
21661;SDS011;10992;48.170;8.596;2023-02-01T00:44:40;3.90;;;3.20;;
21661;SDS011;10992;48.170;8.596;2023-02-01T00:47:07;3.63;;;2.72;;
21661;SDS011;10992;48.170;8.596;2023-02-01T00:49:34;5.40;;;3.50;;
21661;SDS011;10992;48.170;8.596;2023-02-01T00:52:01;3.25;;;2.58;;
21661;SDS011;10992;48.170;8.596;2023-02-01T00:54:28;4.15;;;2.70;;
21661;SDS011;10992;48.170;8.596;2023-02-01T00:56:55;4.03;;;2.78;;
21661;SDS011;10992;48.170;8.596;2023-02-01T00:59:22;4.53;;;3.20;;
21661;SDS011;10992;48.170;8.596;2023-02-01T01:01:49;3.63;;;2.55;;
21661;SDS011;10992;48.170;8.596;2023-02-01T01:04:16;3.50;;;2.60;;
21661;SDS011;10992;48.170;8.596;2023-02-01T01:06:43;3.25;;;2.70;;
21661;SDS011;10992;48.170;8.596;2023-02-01T01:09:09;3.15;;;2.55;;
21661;SDS011;10992;48.170;8.596;2023-02-01T01:11:37;4.63;;;2.70;;
21661;SDS011;10992;48.170;8.596;2023-02-01T01:14:06;4.45;;;3.05;;
21661;SDS011;10992;48.170;8.596;2023-02-01T01:16:34;4.55;;;2.92;;
21661;SDS011;10992;48.170;8.596;2023-02-01T01:19:01;4.13;;;3.35;;
21661;SDS011;10992;48.170;8.596;2023-02-01T01:21:29;3.25;;;2.95;;
21661;SDS011;10992;48.170;8.596;2023-02-01T01:23:56;3.72;;;2.80;;
21661;SDS011;10992;48.170;8.596;2023-02-01T01:26:25;4.10;;;2.88;;
21661;SDS011;10992;48.170;8.596;2023-02-01T01:28:56;3.75;;;2.60;;
21661;SDS011;10992;48.170;8.596;2023-02-01T01:31:26;4.45;;;2.70;;
21661;SDS011;10992;48.170;8.596;2023-02-01T01:33:54;5.25;;;3.00;;
21661;SDS011;10992;48.170;8.596;2023-02-01T01:36:24;3.45;;;2.78;;
21661;SDS011;10992;48.170;8.596;2023-02-01T01:38:52;3.42;;;2.65;;
21661;SDS011;10992;48.170;8.596;2023-02-01T01:41:21;4.97;;;2.97;;
21661;SDS011;10992;48.170;8.596;2023-02-01T01:46:29;3.90;;;2.85;;
21661;SDS011;10992;48.170;8.596;2023-02-01T01:51:49;3.72;;;2.70;;
21661;SDS011;10992;48.170;8.596;2023-02-01T01:54:21;4.07;;;2.95;;
21661;SDS011;10992;48.170;8.596;2023-02-01T01:56:55;5.30;;;3.17;;
21661;SDS011;10992;48.170;8.596;2023-02-01T01:59:27;3.47;;;2.70;;
21661;SDS011;10992;48.170;8.596;2023-02-01T02:01:57;3.28;;;2.85;;
21661;SDS011;10992;48.170;8.596;2023-02-01T02:04:24;3.28;;;2.47;;
21661;SDS011;10992;48.170;8.596;2023-02-01T02:06:57;3.35;;;2.55;;
21661;SDS011;10992;48.170;8.596;2023-02-01T02:09:30;3.92;;;2.40;;
21661;SDS011;10992;48.170;8.596;2023-02-01T02:11:57;4.18;;;2.22;;
21661;SDS011;10992;48.170;8.596;2023-02-01T02:14:24;2.67;;;2.22;;
21661;SDS011;10992;48.170;8.596;2023-02-01T02:20:10;2.60;;;2.03;;
21661;SDS011;10992;48.170;8.596;2023-02-01T02:23:18;3.10;;;2.15;;
21661;SDS011;10992;48.170;8.596;2023-02-01T02:42:24;5.10;;;3.45;;
21661;SDS011;10992;48.170;8.596;2023-02-01T02:45:38;4.10;;;3.30;;
21661;SDS011;10992;48.170;8.596;2023-02-01T02:48:37;4.30;;;3.15;;
21661;SDS011;10992;48.170;8.596;2023-02-01T02:51:38;4.47;;;3.28;;
21661;SDS011;10992;48.170;8.596;2023-02-01T02:54:36;5.07;;;3.20;;
21661;SDS011;10992;48.170;8.596;2023-02-01T02:57:25;5.18;;;2.80;;
21661;SDS011;10992;48.170;8.596;2023-02-01T03:00:17;4.45;;;3.00;;
21661;SDS011;10992;48.170;8.596;2023-02-01T03:03:05;3.90;;;3.35;;
21661;SDS011;10992;48.170;8.596;2023-02-01T03:05:52;4.00;;;3.35;;
21661;SDS011;10992;48.170;8.596;2023-02-01T03:08:21;3.97;;;2.10;;
21661;SDS011;10992;48.170;8.596;2023-02-01T03:11:04;3.45;;;2.15;;
21661;SDS011;10992;48.170;8.596;2023-02-01T03:16:35;2.83;;;2.08;;
21661;SDS011;10992;48.170;8.596;2023-02-01T03:19:07;2.50;;;2.13;;
21661;SDS011;10992;48.170;8.596;2023-02-01T03:21:41;2.95;;;2.00;;
21661;SDS011;10992;48.170;8.596;2023-02-01T03:24:44;2.88;;;2.03;;
21661;SDS011;10992;48.170;8.596;2023-02-01T03:27:27;5.07;;;2.40;;
21661;SDS011;10992;48.170;8.596;2023-02-01T03:32:42;4.03;;;2.10;;
21661;SDS011;10992;48.170;8.596;2023-02-01T03:35:50;2.67;;;2.00;;
21661;SDS011;10992;48.170;8.596;2023-02-01T03:38:35;3.30;;;2.28;;
21661;SDS011;10992;48.170;8.596;2023-02-01T03:41:27;3.92;;;2.30;;
21661;SDS011;10992;48.170;8.596;2023-02-01T03:46:40;6.53;;;2.20;;
21661;SDS011;10992;48.170;8.596;2023-02-01T03:49:16;5.07;;;2.75;;
21661;SDS011;10992;48.170;8.596;2023-02-01T03:51:49;4.18;;;2.55;;
21661;SDS011;10992;48.170;8.596;2023-02-01T03:54:18;3.33;;;2.60;;
21661;SDS011;10992;48.170;8.596;2023-02-01T03:56:46;3.60;;;2.30;;
21661;SDS011;10992;48.170;8.596;2023-02-01T03:59:15;2.90;;;2.40;;
21661;SDS011;10992;48.170;8.596;2023-02-01T04:01:41;2.97;;;2.45;;
21661;SDS011;10992;48.170;8.596;2023-02-01T04:04:08;3.65;;;2.55;;
21661;SDS011;10992;48.170;8.596;2023-02-01T04:06:36;4.32;;;2.60;;
21661;SDS011;10992;48.170;8.596;2023-02-01T04:09:05;2.78;;;2.45;;
21661;SDS011;10992;48.170;8.596;2023-02-01T04:11:31;2.97;;;2.22;;
21661;SDS011;10992;48.170;8.596;2023-02-01T04:13:58;3.90;;;2.55;;
21661;SDS011;10992;48.170;8.596;2023-02-01T04:16:31;2.90;;;2.50;;
21661;SDS011;10992;48.170;8.596;2023-02-01T04:18:58;6.57;;;2.70;;
21661;SDS011;10992;48.170;8.596;2023-02-01T04:21:26;3.55;;;2.55;;
21661;SDS011;10992;48.170;8.596;2023-02-01T04:23:53;6.22;;;2.88;;
21661;SDS011;10992;48.170;8.596;2023-02-01T04:26:21;3.78;;;2.92;;
21661;SDS011;10992;48.170;8.596;2023-02-01T04:28:48;3.35;;;2.72;;
21661;SDS011;10992;48.170;8.596;2023-02-01T04:31:15;4.68;;;2.65;;
21661;SDS011;10992;48.170;8.596;2023-02-01T04:33:43;3.38;;;2.30;;
21661;SDS011;10992;48.170;8.596;2023-02-01T04:36:10;3.58;;;2.53;;
21661;SDS011;10992;48.170;8.596;2023-02-01T04:38:37;3.00;;;2.50;;
21661;SDS011;10992;48.170;8.596;2023-02-01T04:41:04;3.13;;;2.63;;
21661;SDS011;10992;48.170;8.596;2023-02-01T04:43:31;3.65;;;2.50;;
21661;SDS011;10992;48.170;8.596;2023-02-01T04:45:58;3.38;;;2.50;;
21661;SDS011;10992;48.170;8.596;2023-02-01T04:48:25;4.07;;;2.72;;
21661;SDS011;10992;48.170;8.596;2023-02-01T04:50:52;3.78;;;2.55;;
21661;SDS011;10992;48.170;8.596;2023-02-01T04:53:19;5.43;;;2.90;;
21661;SDS011;10992;48.170;8.596;2023-02-01T04:55:47;4.38;;;3.22;;
21661;SDS011;10992;48.170;8.596;2023-02-01T04:58:16;4.13;;;3.17;;
21661;SDS011;10992;48.170;8.596;2023-02-01T05:00:43;3.63;;;2.60;;
21661;SDS011;10992;48.170;8.596;2023-02-01T05:03:10;4.07;;;2.53;;
21661;SDS011;10992;48.170;8.596;2023-02-01T05:05:36;4.78;;;2.60;;
21661;SDS011;10992;48.170;8.596;2023-02-01T05:08:04;4.35;;;2.83;;
21661;SDS011;10992;48.170;8.596;2023-02-01T05:10:31;4.32;;;2.63;;
21661;SDS011;10992;48.170;8.596;2023-02-01T05:12:57;3.08;;;2.17;;
21661;SDS011;10992;48.170;8.596;2023-02-01T05:15:43;3.55;;;2.38;;
21661;SDS011;10992;48.170;8.596;2023-02-01T05:18:12;3.35;;;2.40;;
21661;SDS011;10992;48.170;8.596;2023-02-01T05:20:39;5.05;;;2.55;;
21661;SDS011;10992;48.170;8.596;2023-02-01T05:23:06;2.88;;;2.15;;
21661;SDS011;10992;48.170;8.596;2023-02-01T05:25:33;2.88;;;2.00;;
21661;SDS011;10992;48.170;8.596;2023-02-01T05:28:00;3.53;;;2.08;;
21661;SDS011;10992;48.170;8.596;2023-02-01T05:30:27;3.03;;;1.95;;
21661;SDS011;10992;48.170;8.596;2023-02-01T05:32:55;1.98;;;1.70;;
21661;SDS011;10992;48.170;8.596;2023-02-01T05:35:21;2.30;;;1.70;;
21661;SDS011;10992;48.170;8.596;2023-02-01T05:37:48;2.88;;;1.83;;
21661;SDS011;10992;48.170;8.596;2023-02-01T05:40:15;2.05;;;1.70;;
21661;SDS011;10992;48.170;8.596;2023-02-01T05:42:42;1.92;;;1.65;;
21661;SDS011;10992;48.170;8.596;2023-02-01T05:45:09;2.92;;;1.92;;
21661;SDS011;10992;48.170;8.596;2023-02-01T05:47:36;2.67;;;1.42;;
21661;SDS011;10992;48.170;8.596;2023-02-01T05:50:04;2.15;;;1.77;;
21661;SDS011;10992;48.170;8.596;2023-02-01T05:52:33;1.60;;;1.27;;
21661;SDS011;10992;48.170;8.596;2023-02-01T05:55:00;2.13;;;1.50;;
21661;SDS011;10992;48.170;8.596;2023-02-01T05:57:27;1.92;;;1.70;;
21661;SDS011;10992;48.170;8.596;2023-02-01T05:59:54;4.05;;;1.90;;
21661;SDS011;10992;48.170;8.596;2023-02-01T06:02:21;3.10;;;1.70;;
21661;SDS011;10992;48.170;8.596;2023-02-01T06:04:50;1.98;;;1.50;;
21661;SDS011;10992;48.170;8.596;2023-02-01T06:07:17;2.25;;;1.90;;
21661;SDS011;10992;48.170;8.596;2023-02-01T06:09:44;2.88;;;2.10;;
21661;SDS011;10992;48.170;8.596;2023-02-01T06:12:11;2.33;;;1.77;;
21661;SDS011;10992;48.170;8.596;2023-02-01T06:14:38;3.10;;;1.70;;
21661;SDS011;10992;48.170;8.596;2023-02-01T06:17:05;1.52;;;1.42;;
21661;SDS011;10992;48.170;8.596;2023-02-01T06:19:33;3.05;;;1.85;;
21661;SDS011;10992;48.170;8.596;2023-02-01T06:22:00;3.50;;;2.00;;
21661;SDS011;10992;48.170;8.596;2023-02-01T06:24:27;2.67;;;1.88;;
21661;SDS011;10992;48.170;8.596;2023-02-01T06:26:54;2.30;;;1.80;;
21661;SDS011;10992;48.170;8.596;2023-02-01T06:29:21;1.80;;;1.40;;
21661;SDS011;10992;48.170;8.596;2023-02-01T06:31:48;2.35;;;1.65;;
21661;SDS011;10992;48.170;8.596;2023-02-01T06:34:15;3.80;;;2.08;;
21661;SDS011;10992;48.170;8.596;2023-02-01T06:36:42;2.95;;;1.58;;
21661;SDS011;10992;48.170;8.596;2023-02-01T06:39:08;3.72;;;2.42;;
21661;SDS011;10992;48.170;8.596;2023-02-01T06:41:35;3.72;;;2.22;;
21661;SDS011;10992;48.170;8.596;2023-02-01T06:44:02;1.67;;;1.52;;
21661;SDS011;10992;48.170;8.596;2023-02-01T06:46:30;3.00;;;1.98;;
21661;SDS011;10992;48.170;8.596;2023-02-01T06:48:57;3.90;;;1.77;;
21661;SDS011;10992;48.170;8.596;2023-02-01T06:51:24;2.20;;;1.80;;
21661;SDS011;10992;48.170;8.596;2023-02-01T06:53:53;2.10;;;1.50;;
21661;SDS011;10992;48.170;8.596;2023-02-01T06:56:20;2.80;;;1.70;;
21661;SDS011;10992;48.170;8.596;2023-02-01T06:58:47;2.65;;;1.95;;
21661;SDS011;10992;48.170;8.596;2023-02-01T07:01:15;3.95;;;2.10;;
21661;SDS011;10992;48.170;8.596;2023-02-01T07:03:42;2.55;;;2.20;;
21661;SDS011;10992;48.170;8.596;2023-02-01T07:06:12;2.10;;;1.90;;
21661;SDS011;10992;48.170;8.596;2023-02-01T07:08:42;4.70;;;1.83;;
21661;SDS011;10992;48.170;8.596;2023-02-01T07:11:10;3.10;;;1.67;;
21661;SDS011;10992;48.170;8.596;2023-02-01T07:13:38;3.42;;;1.98;;
21661;SDS011;10992;48.170;8.596;2023-02-01T07:16:07;5.07;;;2.20;;
21661;SDS011;10992;48.170;8.596;2023-02-01T07:18:39;3.30;;;1.65;;
21661;SDS011;10992;48.170;8.596;2023-02-01T07:21:06;1.98;;;1.67;;
21661;SDS011;10992;48.170;8.596;2023-02-01T07:23:33;2.70;;;1.90;;
21661;SDS011;10992;48.170;8.596;2023-02-01T07:26:02;2.00;;;1.80;;
21661;SDS011;10992;48.170;8.596;2023-02-01T07:28:31;2.33;;;2.10;;
21661;SDS011;10992;48.170;8.596;2023-02-01T07:31:10;2.92;;;2.25;;
21661;SDS011;10992;48.170;8.596;2023-02-01T07:33:41;2.58;;;2.10;;
21661;SDS011;10992;48.170;8.596;2023-02-01T07:36:11;2.65;;;1.73;;
21661;SDS011;10992;48.170;8.596;2023-02-01T07:38:39;2.20;;;1.83;;
21661;SDS011;10992;48.170;8.596;2023-02-01T07:41:07;3.03;;;1.73;;
21661;SDS011;10992;48.170;8.596;2023-02-01T07:43:34;3.35;;;2.33;;
21661;SDS011;10992;48.170;8.596;2023-02-01T07:46:02;2.88;;;2.08;;
21661;SDS011;10992;48.170;8.596;2023-02-01T07:48:30;3.25;;;2.30;;
21661;SDS011;10992;48.170;8.596;2023-02-01T07:50:58;3.03;;;2.20;;
21661;SDS011;10992;48.170;8.596;2023-02-01T07:53:32;2.20;;;1.73;;
21661;SDS011;10992;48.170;8.596;2023-02-01T07:56:00;2.45;;;1.67;;
21661;SDS011;10992;48.170;8.596;2023-02-01T07:58:28;2.47;;;2.00;;
21661;SDS011;10992;48.170;8.596;2023-02-01T08:00:55;3.50;;;1.50;;
21661;SDS011;10992;48.170;8.596;2023-02-01T08:03:41;2.05;;;1.80;;
21661;SDS011;10992;48.170;8.596;2023-02-01T08:06:08;3.35;;;2.25;;
21661;SDS011;10992;48.170;8.596;2023-02-01T08:08:35;7.50;;;2.90;;
21661;SDS011;10992;48.170;8.596;2023-02-01T08:11:03;3.88;;;2.45;;
21661;SDS011;10992;48.170;8.596;2023-02-01T08:13:31;3.35;;;2.38;;
21661;SDS011;10992;48.170;8.596;2023-02-01T08:16:00;4.05;;;2.25;;
21661;SDS011;10992;48.170;8.596;2023-02-01T08:18:32;2.00;;;1.80;;
21661;SDS011;10992;48.170;8.596;2023-02-01T08:21:06;2.10;;;1.90;;
21661;SDS011;10992;48.170;8.596;2023-02-01T08:23:36;3.35;;;1.90;;
21661;SDS011;10992;48.170;8.596;2023-02-01T08:28:39;2.63;;;2.10;;
21661;SDS011;10992;48.170;8.596;2023-02-01T08:31:08;1.77;;;1.55;;
21661;SDS011;10992;48.170;8.596;2023-02-01T08:33:37;1.70;;;1.60;;
21661;SDS011;10992;48.170;8.596;2023-02-01T08:36:04;5.28;;;2.30;;
21661;SDS011;10992;48.170;8.596;2023-02-01T08:38:34;2.78;;;2.00;;
21661;SDS011;10992;48.170;8.596;2023-02-01T08:41:08;3.65;;;1.60;;
21661;SDS011;10992;48.170;8.596;2023-02-01T08:43:37;2.92;;;1.55;;
21661;SDS011;10992;48.170;8.596;2023-02-01T08:46:04;3.33;;;1.95;;
21661;SDS011;10992;48.170;8.596;2023-02-01T08:48:32;2.58;;;1.70;;
21661;SDS011;10992;48.170;8.596;2023-02-01T08:51:06;3.75;;;1.80;;
21661;SDS011;10992;48.170;8.596;2023-02-01T08:53:35;6.15;;;1.80;;
21661;SDS011;10992;48.170;8.596;2023-02-01T08:56:02;3.53;;;2.10;;
21661;SDS011;10992;48.170;8.596;2023-02-01T08:58:30;3.03;;;1.50;;
21661;SDS011;10992;48.170;8.596;2023-02-01T09:00:57;5.75;;;1.67;;
21661;SDS011;10992;48.170;8.596;2023-02-01T09:03:32;3.83;;;1.60;;
21661;SDS011;10992;48.170;8.596;2023-02-01T09:06:33;3.03;;;1.30;;
21661;SDS011;10992;48.170;8.596;2023-02-01T09:08:53;4.97;;;1.55;;
21661;SDS011;10992;48.170;8.596;2023-02-01T09:11:20;5.97;;;1.92;;
21661;SDS011;10992;48.170;8.596;2023-02-01T09:13:47;3.75;;;1.98;;
21661;SDS011;10992;48.170;8.596;2023-02-01T09:16:15;6.90;;;2.13;;
21661;SDS011;10992;48.170;8.596;2023-02-01T09:18:42;7.43;;;1.80;;
21661;SDS011;10992;48.170;8.596;2023-02-01T09:21:29;5.28;;;2.50;;
21661;SDS011;10992;48.170;8.596;2023-02-01T09:23:56;5.97;;;2.28;;
21661;SDS011;10992;48.170;8.596;2023-02-01T09:26:23;3.90;;;2.03;;
21661;SDS011;10992;48.170;8.596;2023-02-01T09:28:58;7.95;;;2.53;;
21661;SDS011;10992;48.170;8.596;2023-02-01T09:31:26;8.00;;;3.78;;
21661;SDS011;10992;48.170;8.596;2023-02-01T09:33:53;15.20;;;4.95;;
21661;SDS011;10992;48.170;8.596;2023-02-01T09:36:20;10.48;;;3.88;;
21661;SDS011;10992;48.170;8.596;2023-02-01T09:38:47;9.23;;;2.80;;
21661;SDS011;10992;48.170;8.596;2023-02-01T09:47:19;6.10;;;3.00;;
21661;SDS011;10992;48.170;8.596;2023-02-01T09:49:51;12.18;;;3.78;;
21661;SDS011;10992;48.170;8.596;2023-02-01T09:52:29;5.78;;;3.13;;
21661;SDS011;10992;48.170;8.596;2023-02-01T09:55:24;8.00;;;2.75;;
21661;SDS011;10992;48.170;8.596;2023-02-01T09:58:00;15.50;;;3.42;;
21661;SDS011;10992;48.170;8.596;2023-02-01T10:00:30;10.95;;;4.00;;
21661;SDS011;10992;48.170;8.596;2023-02-01T10:03:01;9.02;;;3.63;;
21661;SDS011;10992;48.170;8.596;2023-02-01T10:19:33;7.13;;;2.83;;
21661;SDS011;10992;48.170;8.596;2023-02-01T10:22:17;5.72;;;2.92;;
21661;SDS011;10992;48.170;8.596;2023-02-01T10:25:26;9.95;;;3.60;;
21661;SDS011;10992;48.170;8.596;2023-02-01T10:28:07;3.75;;;2.35;;
21661;SDS011;10992;48.170;8.596;2023-02-01T10:30:45;5.30;;;2.55;;
21661;SDS011;10992;48.170;8.596;2023-02-01T10:33:18;3.38;;;2.40;;
21661;SDS011;10992;48.170;8.596;2023-02-01T10:35:53;5.03;;;2.30;;
21661;SDS011;10992;48.170;8.596;2023-02-01T10:38:27;3.55;;;2.38;;
21661;SDS011;10992;48.170;8.596;2023-02-01T10:40:58;4.30;;;2.45;;
21661;SDS011;10992;48.170;8.596;2023-02-01T10:43:29;4.30;;;2.72;;
21661;SDS011;10992;48.170;8.596;2023-02-01T10:45:57;3.78;;;2.67;;
21661;SDS011;10992;48.170;8.596;2023-02-01T10:48:24;3.42;;;2.10;;
21661;SDS011;10992;48.170;8.596;2023-02-01T10:50:53;4.35;;;3.40;;
21661;SDS011;10992;48.170;8.596;2023-02-01T10:53:31;4.50;;;2.00;;
21661;SDS011;10992;48.170;8.596;2023-02-01T10:56:07;8.00;;;4.68;;
21661;SDS011;10992;48.170;8.596;2023-02-01T10:58:35;8.40;;;5.75;;
21661;SDS011;10992;48.170;8.596;2023-02-01T11:01:09;5.40;;;2.40;;
21661;SDS011;10992;48.170;8.596;2023-02-01T11:03:58;4.57;;;2.85;;
21661;SDS011;10992;48.170;8.596;2023-02-01T11:06:30;4.28;;;2.17;;
21661;SDS011;10992;48.170;8.596;2023-02-01T11:09:01;5.93;;;2.65;;
21661;SDS011;10992;48.170;8.596;2023-02-01T11:11:52;3.67;;;2.30;;
21661;SDS011;10992;48.170;8.596;2023-02-01T11:14:34;5.53;;;2.22;;
21661;SDS011;10992;48.170;8.596;2023-02-01T11:17:17;5.25;;;2.58;;
21661;SDS011;10992;48.170;8.596;2023-02-01T11:19:59;3.58;;;1.98;;
21661;SDS011;10992;48.170;8.596;2023-02-01T11:22:29;6.35;;;2.40;;
21661;SDS011;10992;48.170;8.596;2023-02-01T11:24:56;3.38;;;1.85;;
21661;SDS011;10992;48.170;8.596;2023-02-01T11:27:25;2.55;;;2.35;;
21661;SDS011;10992;48.170;8.596;2023-02-01T11:29:55;6.75;;;2.63;;
21661;SDS011;10992;48.170;8.596;2023-02-01T11:32:25;4.72;;;2.90;;
21661;SDS011;10992;48.170;8.596;2023-02-01T11:34:55;5.53;;;2.42;;
21661;SDS011;10992;48.170;8.596;2023-02-01T11:37:30;4.43;;;2.53;;
21661;SDS011;10992;48.170;8.596;2023-02-01T11:40:12;4.00;;;2.33;;
21661;SDS011;10992;48.170;8.596;2023-02-01T11:43:38;8.48;;;3.63;;
21661;SDS011;10992;48.170;8.596;2023-02-01T11:46:01;7.95;;;3.13;;
21661;SDS011;10992;48.170;8.596;2023-02-01T11:48:32;4.18;;;3.00;;
21661;SDS011;10992;48.170;8.596;2023-02-01T11:57:08;4.82;;;3.05;;
21661;SDS011;10992;48.170;8.596;2023-02-01T12:05:47;5.50;;;2.55;;
21661;SDS011;10992;48.170;8.596;2023-02-01T12:13:40;6.10;;;2.72;;
21661;SDS011;10992;48.170;8.596;2023-02-01T12:25:26;11.18;;;4.47;;
21661;SDS011;10992;48.170;8.596;2023-02-01T12:28:17;10.13;;;4.05;;
21661;SDS011;10992;48.170;8.596;2023-02-01T12:38:46;10.27;;;2.47;;
21661;SDS011;10992;48.170;8.596;2023-02-01T12:43:59;6.38;;;2.45;;
21661;SDS011;10992;48.170;8.596;2023-02-01T12:52:16;7.18;;;2.65;;
21661;SDS011;10992;48.170;8.596;2023-02-01T12:57:35;8.10;;;2.67;;
21661;SDS011;10992;48.170;8.596;2023-02-01T13:00:19;10.13;;;2.40;;
21661;SDS011;10992;48.170;8.596;2023-02-01T13:02:54;7.30;;;2.97;;
21661;SDS011;10992;48.170;8.596;2023-02-01T13:08:42;9.45;;;3.10;;
21661;SDS011;10992;48.170;8.596;2023-02-01T13:11:39;8.20;;;2.67;;
21661;SDS011;10992;48.170;8.596;2023-02-01T13:17:00;10.77;;;4.32;;
21661;SDS011;10992;48.170;8.596;2023-02-01T13:19:48;9.73;;;2.88;;
21661;SDS011;10992;48.170;8.596;2023-02-01T13:22:25;6.85;;;3.20;;
21661;SDS011;10992;48.170;8.596;2023-02-01T13:24:56;11.63;;;4.15;;
21661;SDS011;10992;48.170;8.596;2023-02-01T13:27:29;8.80;;;4.18;;
21661;SDS011;10992;48.170;8.596;2023-02-01T13:30:04;15.13;;;9.05;;
21661;SDS011;10992;48.170;8.596;2023-02-01T13:38:36;17.60;;;8.80;;
21661;SDS011;10992;48.170;8.596;2023-02-01T13:41:24;17.15;;;8.00;;
21661;SDS011;10992;48.170;8.596;2023-02-01T13:43:58;13.43;;;4.57;;
21661;SDS011;10992;48.170;8.596;2023-02-01T13:46:29;15.32;;;10.70;;
21661;SDS011;10992;48.170;8.596;2023-02-01T13:48:57;17.10;;;11.10;;
21661;SDS011;10992;48.170;8.596;2023-02-01T13:51:47;7.47;;;3.60;;
21661;SDS011;10992;48.170;8.596;2023-02-01T13:54:33;11.10;;;7.93;;
21661;SDS011;10992;48.170;8.596;2023-02-01T13:57:04;15.65;;;7.53;;
21661;SDS011;10992;48.170;8.596;2023-02-01T14:05:02;11.85;;;3.95;;
21661;SDS011;10992;48.170;8.596;2023-02-01T14:07:30;11.57;;;3.83;;
21661;SDS011;10992;48.170;8.596;2023-02-01T14:09:58;11.75;;;3.72;;
21661;SDS011;10992;48.170;8.596;2023-02-01T14:12:48;9.45;;;3.00;;
21661;SDS011;10992;48.170;8.596;2023-02-01T14:15:18;16.83;;;4.50;;
21661;SDS011;10992;48.170;8.596;2023-02-01T14:17:49;9.18;;;3.70;;
21661;SDS011;10992;48.170;8.596;2023-02-01T14:23:16;10.30;;;4.00;;
21661;SDS011;10992;48.170;8.596;2023-02-01T14:25:45;10.77;;;3.53;;
21661;SDS011;10992;48.170;8.596;2023-02-01T14:28:25;7.47;;;2.72;;
21661;SDS011;10992;48.170;8.596;2023-02-01T14:30:56;10.07;;;3.00;;
21661;SDS011;10992;48.170;8.596;2023-02-01T14:33:25;6.25;;;2.95;;
21661;SDS011;10992;48.170;8.596;2023-02-01T14:36:07;11.05;;;4.40;;
21661;SDS011;10992;48.170;8.596;2023-02-01T14:38:38;10.05;;;3.05;;
21661;SDS011;10992;48.170;8.596;2023-02-01T14:41:39;10.48;;;4.10;;
21661;SDS011;10992;48.170;8.596;2023-02-01T14:49:44;10.20;;;4.13;;
21661;SDS011;10992;48.170;8.596;2023-02-01T14:52:37;10.93;;;3.53;;
21661;SDS011;10992;48.170;8.596;2023-02-01T14:55:21;9.73;;;3.08;;
21661;SDS011;10992;48.170;8.596;2023-02-01T14:57:52;10.57;;;4.18;;
21661;SDS011;10992;48.170;8.596;2023-02-01T15:00:23;10.98;;;3.83;;
21661;SDS011;10992;48.170;8.596;2023-02-01T15:02:52;10.63;;;3.50;;
21661;SDS011;10992;48.170;8.596;2023-02-01T15:07:48;10.70;;;2.67;;
21661;SDS011;10992;48.170;8.596;2023-02-01T15:10:17;14.80;;;3.42;;
21661;SDS011;10992;48.170;8.596;2023-02-01T15:12:46;13.35;;;4.57;;
21661;SDS011;10992;48.170;8.596;2023-02-01T15:15:19;13.20;;;5.90;;
21661;SDS011;10992;48.170;8.596;2023-02-01T15:17:55;20.08;;;9.32;;
21661;SDS011;10992;48.170;8.596;2023-02-01T15:20:27;14.40;;;5.45;;
21661;SDS011;10992;48.170;8.596;2023-02-01T15:23:00;12.45;;;5.53;;
21661;SDS011;10992;48.170;8.596;2023-02-01T15:25:31;9.35;;;3.55;;
21661;SDS011;10992;48.170;8.596;2023-02-01T15:28:03;13.07;;;3.55;;
21661;SDS011;10992;48.170;8.596;2023-02-01T15:30:33;8.65;;;3.75;;
21661;SDS011;10992;48.170;8.596;2023-02-01T15:33:06;11.32;;;4.13;;
21661;SDS011;10992;48.170;8.596;2023-02-01T15:35:41;13.25;;;4.43;;
21661;SDS011;10992;48.170;8.596;2023-02-01T15:40:55;11.50;;;4.80;;
21661;SDS011;10992;48.170;8.596;2023-02-01T15:43:25;16.33;;;6.22;;
21661;SDS011;10992;48.170;8.596;2023-02-01T15:45:57;13.07;;;4.18;;
21661;SDS011;10992;48.170;8.596;2023-02-01T15:48:27;8.57;;;3.08;;
21661;SDS011;10992;48.170;8.596;2023-02-01T15:51:02;10.20;;;3.70;;
21661;SDS011;10992;48.170;8.596;2023-02-01T15:53:30;15.20;;;3.45;;
21661;SDS011;10992;48.170;8.596;2023-02-01T15:55:59;7.25;;;3.17;;
21661;SDS011;10992;48.170;8.596;2023-02-01T15:58:29;10.65;;;3.72;;
21661;SDS011;10992;48.170;8.596;2023-02-01T16:01:02;7.78;;;3.38;;
21661;SDS011;10992;48.170;8.596;2023-02-01T16:03:39;13.32;;;3.45;;
21661;SDS011;10992;48.170;8.596;2023-02-01T16:06:26;10.48;;;3.33;;
21661;SDS011;10992;48.170;8.596;2023-02-01T16:09:16;11.80;;;3.17;;
21661;SDS011;10992;48.170;8.596;2023-02-01T16:14:20;11.32;;;3.42;;
21661;SDS011;10992;48.170;8.596;2023-02-01T16:16:49;7.65;;;3.38;;
21661;SDS011;10992;48.170;8.596;2023-02-01T16:19:16;15.27;;;6.47;;
21661;SDS011;10992;48.170;8.596;2023-02-01T16:21:43;14.48;;;5.00;;
21661;SDS011;10992;48.170;8.596;2023-02-01T16:24:10;10.48;;;3.75;;
21661;SDS011;10992;48.170;8.596;2023-02-01T16:26:37;11.65;;;3.60;;
21661;SDS011;10992;48.170;8.596;2023-02-01T16:29:04;13.32;;;3.53;;
21661;SDS011;10992;48.170;8.596;2023-02-01T16:31:36;12.60;;;3.15;;
21661;SDS011;10992;48.170;8.596;2023-02-01T16:34:04;8.65;;;3.25;;
21661;SDS011;10992;48.170;8.596;2023-02-01T16:36:33;13.65;;;3.60;;
21661;SDS011;10992;48.170;8.596;2023-02-01T16:39:00;12.48;;;3.95;;
21661;SDS011;10992;48.170;8.596;2023-02-01T16:41:29;10.40;;;3.40;;
21661;SDS011;10992;48.170;8.596;2023-02-01T16:43:56;13.60;;;4.50;;
21661;SDS011;10992;48.170;8.596;2023-02-01T16:46:24;14.48;;;3.90;;
21661;SDS011;10992;48.170;8.596;2023-02-01T16:48:56;10.40;;;3.42;;
21661;SDS011;10992;48.170;8.596;2023-02-01T16:51:25;12.23;;;4.90;;
21661;SDS011;10992;48.170;8.596;2023-02-01T16:54:01;14.18;;;4.43;;
21661;SDS011;10992;48.170;8.596;2023-02-01T16:56:30;10.13;;;3.25;;
21661;SDS011;10992;48.170;8.596;2023-02-01T16:58:59;13.13;;;4.38;;
21661;SDS011;10992;48.170;8.596;2023-02-01T17:01:27;14.90;;;4.20;;
21661;SDS011;10992;48.170;8.596;2023-02-01T17:03:55;12.45;;;4.25;;
21661;SDS011;10992;48.170;8.596;2023-02-01T17:06:23;9.20;;;3.42;;
21661;SDS011;10992;48.170;8.596;2023-02-01T17:08:53;12.25;;;3.85;;
21661;SDS011;10992;48.170;8.596;2023-02-01T17:11:22;12.70;;;3.58;;
21661;SDS011;10992;48.170;8.596;2023-02-01T17:13:49;12.13;;;3.85;;
21661;SDS011;10992;48.170;8.596;2023-02-01T17:16:29;8.73;;;3.75;;
21661;SDS011;10992;48.170;8.596;2023-02-01T17:19:09;9.98;;;3.25;;
21661;SDS011;10992;48.170;8.596;2023-02-01T17:21:47;7.00;;;3.38;;
21661;SDS011;10992;48.170;8.596;2023-02-01T17:24:22;12.00;;;4.00;;
21661;SDS011;10992;48.170;8.596;2023-02-01T17:26:54;11.50;;;3.88;;
21661;SDS011;10992;48.170;8.596;2023-02-01T17:29:21;12.68;;;3.67;;